Time;durP1;ratioP1;P1;durP2;ratioP2;P2;SDS_P1;SDS_P2;PMS_P1;PMS_P2;Temp;Humidity;BMP_temperature;BMP_pressure;BME280_temperature;BME280_humidity;BME280_pressure;Samples;Min_cycle;Max_cycle;Signal;HPM_P1;HPM_P2
2021/07/06 00:01:07;;;;;;;10.87;4.80;;;17.00;99.90;;;;;;5059842;28;20393;-55
2021/07/06 00:03:33;;;;;;;7.10;4.40;;;17.10;99.90;;;;;;5069013;28;20425;-55
2021/07/06 00:05:59;;;;;;;8.88;4.68;;;17.00;99.90;;;;;;5071431;28;20385;-56
2021/07/06 00:08:24;;;;;;;8.13;4.18;;;16.90;99.90;;;;;;5056531;28;20438;-55
2021/07/06 00:10:50;;;;;;;8.23;4.43;;;17.00;99.90;;;;;;5038974;28;20455;-57
2021/07/06 00:13:16;;;;;;;10.50;4.90;;;17.00;99.90;;;;;;5055412;28;20902;-55
2021/07/06 00:15:44;;;;;;;7.95;4.70;;;17.10;99.90;;;;;;5056796;28;20427;-55
2021/07/06 00:18:09;;;;;;;12.60;5.45;;;17.20;99.90;;;;;;5045885;28;20412;-55
2021/07/06 00:20:35;;;;;;;9.50;4.85;;;17.20;99.90;;;;;;5039487;28;20395;-55
2021/07/06 00:23:03;;;;;;;8.60;4.90;;;17.20;99.90;;;;;;5036177;28;20857;-55
2021/07/06 00:25:30;;;;;;;12.10;5.17;;;17.30;99.90;;;;;;5057166;28;20484;-55
2021/07/06 00:27:56;;;;;;;9.10;4.63;;;17.30;99.90;;;;;;5070485;28;20384;-55
2021/07/06 00:30:23;;;;;;;9.18;4.90;;;17.40;99.90;;;;;;5056256;28;20407;-55
2021/07/06 00:32:49;;;;;;;9.02;5.47;;;17.30;99.90;;;;;;5055476;28;20874;-55
2021/07/06 00:35:15;;;;;;;10.10;5.80;;;17.30;99.90;;;;;;5051906;28;20398;-55
2021/07/06 00:37:41;;;;;;;9.98;4.90;;;17.30;99.90;;;;;;5055503;28;20476;-55
2021/07/06 00:40:08;;;;;;;11.20;5.93;;;17.30;99.90;;;;;;5053998;28;20909;-55
2021/07/06 00:42:34;;;;;;;9.13;6.32;;;17.30;99.90;;;;;;5070417;28;20372;-55
2021/07/06 00:45:00;;;;;;;9.63;6.10;;;17.30;99.90;;;;;;5070240;28;20380;-55
2021/07/06 00:47:31;;;;;;;9.38;5.50;;;17.30;99.90;;;;;;5069361;28;20438;-56
2021/07/06 00:49:56;;;;;;;10.30;6.00;;;17.20;99.90;;;;;;5051968;28;20499;-55
2021/07/06 00:52:22;;;;;;;8.80;4.90;;;17.20;99.90;;;;;;5069061;28;20482;-55
2021/07/06 00:54:48;;;;;;;9.30;5.20;;;17.20;99.90;;;;;;5070022;28;20434;-55
2021/07/06 00:57:13;;;;;;;8.40;5.33;;;17.20;99.90;;;;;;5069034;28;20396;-55
2021/07/06 00:59:39;;;;;;;10.02;5.63;;;17.20;99.90;;;;;;5069875;28;20387;-55
2021/07/06 01:02:04;;;;;;;9.70;5.40;;;17.20;99.90;;;;;;5069304;28;20470;-55
2021/07/06 01:04:30;;;;;;;10.10;5.30;;;17.20;99.90;;;;;;5070051;28;20418;-56
2021/07/06 01:06:56;;;;;;;11.73;5.57;;;17.10;99.90;;;;;;5069775;28;20375;-55
2021/07/06 01:09:21;;;;;;;9.00;5.00;;;17.10;99.90;;;;;;5069183;28;20927;-55
2021/07/06 01:11:48;;;;;;;10.00;5.27;;;17.00;99.90;;;;;;5051966;28;20912;-55
2021/07/06 01:14:19;;;;;;;7.80;5.18;;;17.00;99.90;;;;;;5068654;28;20432;-55
2021/07/06 01:16:46;;;;;;;8.93;5.22;;;17.00;99.90;;;;;;5069385;28;20590;-55
2021/07/06 01:19:14;;;;;;;8.38;5.30;;;17.00;99.90;;;;;;5050933;28;20912;-55
2021/07/06 01:21:41;;;;;;;11.10;5.20;;;17.00;99.90;;;;;;5069914;28;20441;-55
2021/07/06 01:24:07;;;;;;;9.93;5.30;;;17.00;99.90;;;;;;5068916;28;20395;-55
2021/07/06 01:26:32;;;;;;;9.70;5.40;;;17.00;99.90;;;;;;5069367;28;20760;-55
2021/07/06 01:28:58;;;;;;;22.45;6.10;;;17.00;99.90;;;;;;5069544;28;20888;-55
2021/07/06 01:31:24;;;;;;;10.70;5.40;;;17.00;99.90;;;;;;5068808;28;20395;-55
2021/07/06 01:33:50;;;;;;;9.88;4.97;;;17.00;99.90;;;;;;5069321;28;20395;-55
2021/07/06 01:36:18;;;;;;;8.57;4.70;;;16.90;99.90;;;;;;5068730;28;20987;-55
2021/07/06 01:38:43;;;;;;;8.73;5.00;;;17.00;99.90;;;;;;5069937;28;20864;-55
2021/07/06 01:41:09;;;;;;;10.07;5.40;;;17.00;99.90;;;;;;5068716;28;20380;-55
2021/07/06 01:43:35;;;;;;;9.10;4.70;;;17.00;99.90;;;;;;5069919;28;20466;-56
2021/07/06 01:46:02;;;;;;;9.40;5.30;;;17.00;99.90;;;;;;5069245;28;20384;-56
2021/07/06 01:48:28;;;;;;;9.25;5.20;;;17.00;99.90;;;;;;5068560;28;20411;-55
2021/07/06 01:50:54;;;;;;;10.05;4.85;;;17.00;99.90;;;;;;5068960;28;20837;-55
2021/07/06 01:53:22;;;;;;;9.52;5.18;;;17.00;99.90;;;;;;5068749;28;20395;-56
2021/07/06 01:55:50;;;;;;;8.55;5.40;;;17.00;99.90;;;;;;5069159;28;20478;-56
2021/07/06 01:58:19;;;;;;;9.32;5.88;;;17.00;99.90;;;;;;5068855;28;20384;-55
2021/07/06 02:00:57;;;;;;;7.38;4.90;;;16.90;99.90;;;;;;5069110;28;20384;-56
2021/07/06 02:03:22;;;;;;;10.10;5.53;;;16.90;99.90;;;;;;5068208;28;21213;-55
2021/07/06 02:05:53;;;;;;;10.20;6.00;;;16.90;99.90;;;;;;5068904;28;20383;-55
2021/07/06 02:08:20;;;;;;;10.37;5.87;;;16.90;99.90;;;;;;5068706;28;20834;-55
2021/07/06 02:10:49;;;;;;;9.15;5.43;;;16.90;99.90;;;;;;5069098;28;20877;-56
2021/07/06 02:13:20;;;;;;;8.98;5.63;;;16.80;99.90;;;;;;5068370;28;20457;-55
2021/07/06 02:15:48;;;;;;;9.20;4.57;;;16.80;99.90;;;;;;5069036;28;20467;-56
2021/07/06 02:18:22;;;;;;;8.50;4.88;;;16.80;99.90;;;;;;5068074;28;20948;-55
2021/07/06 02:20:53;;;;;;;7.20;4.88;;;16.70;99.90;;;;;;5068941;28;20399;-55
2021/07/06 02:23:19;;;;;;;10.75;5.07;;;17.10;99.90;;;;;;5068364;28;20391;-55
2021/07/06 02:25:48;;;;;;;10.50;5.07;;;16.70;99.90;;;;;;5068964;28;20482;-56
2021/07/06 02:28:14;;;;;;;7.95;4.90;;;16.20;99.90;;;;;;5067504;28;20391;-55
2021/07/06 02:30:40;;;;;;;10.60;4.40;;;16.60;99.90;;;;;;5063988;28;20765;-55
2021/07/06 02:33:05;;;;;;;7.75;4.07;;;16.70;99.90;;;;;;5072431;28;20788;-55
2021/07/06 02:35:31;;;;;;;9.38;4.38;;;16.60;99.90;;;;;;5072582;28;20372;-55
2021/07/06 02:37:59;;;;;;;12.80;4.85;;;16.80;99.90;;;;;;5072723;28;20488;-56
2021/07/06 02:40:25;;;;;;;7.28;4.20;;;16.70;99.90;;;;;;5072275;28;21133;-55
2021/07/06 02:42:51;;;;;;;8.38;5.05;;;16.70;99.90;;;;;;5072512;28;20408;-56
2021/07/06 02:45:18;;;;;;;6.78;3.83;;;16.70;99.90;;;;;;5071639;28;20829;-55
2021/07/06 02:47:45;;;;;;;10.03;4.20;;;16.70;99.90;;;;;;5072676;28;20860;-56
2021/07/06 02:50:12;;;;;;;10.75;4.35;;;16.70;99.90;;;;;;5071624;28;20418;-55
2021/07/06 02:52:39;;;;;;;7.10;4.18;;;16.80;99.90;;;;;;5072157;28;20411;-57
2021/07/06 02:55:07;;;;;;;9.85;4.30;;;16.80;99.90;;;;;;5054827;28;20398;-56
2021/07/06 03:00:05;;;;;;;8.40;4.50;;;16.80;99.90;;;;;;5072393;28;20376;-56
2021/07/06 03:02:31;;;;;;;12.77;4.38;;;16.80;99.90;;;;;;5071577;28;20733;-56
2021/07/06 03:04:56;;;;;;;9.55;4.25;;;16.80;99.90;;;;;;5072274;28;20375;-56
2021/07/06 03:07:22;;;;;;;8.10;4.83;;;16.80;99.90;;;;;;5071517;28;20395;-56
2021/07/06 03:09:48;;;;;;;7.72;4.00;;;16.80;99.90;;;;;;5072237;28;20401;-56
2021/07/06 03:12:14;;;;;;;9.40;4.72;;;16.80;99.90;;;;;;5071478;28;20424;-56
2021/07/06 03:14:39;;;;;;;11.55;4.40;;;16.80;99.90;;;;;;5071935;28;20380;-56
2021/07/06 03:17:05;;;;;;;9.32;4.47;;;16.80;99.90;;;;;;5072052;28;20857;-56
2021/07/06 03:19:32;;;;;;;8.40;4.27;;;16.80;99.90;;;;;;5071069;28;20383;-57
2021/07/06 03:21:57;;;;;;;7.15;3.90;;;16.80;99.90;;;;;;5071591;28;20531;-56
2021/07/06 03:24:23;;;;;;;7.20;4.00;;;16.90;99.90;;;;;;5071120;28;20411;-56
2021/07/06 03:26:48;;;;;;;6.80;3.77;;;16.90;99.90;;;;;;5071858;28;20489;-56
2021/07/06 03:29:14;;;;;;;9.90;4.50;;;16.80;99.90;;;;;;5053021;28;20384;-56
2021/07/06 03:31:40;;;;;;;8.15;4.13;;;16.90;99.90;;;;;;5071790;28;20521;-56
2021/07/06 03:34:05;;;;;;;7.10;3.92;;;16.80;99.90;;;;;;5071525;28;20379;-56
2021/07/06 03:36:31;;;;;;;8.37;4.37;;;16.70;99.90;;;;;;5070776;28;20459;-56
2021/07/06 03:38:56;;;;;;;8.20;4.50;;;16.70;99.90;;;;;;5071040;28;20856;-56
2021/07/06 03:41:22;;;;;;;8.77;4.72;;;16.70;99.90;;;;;;5052888;28;20845;-56
2021/07/06 03:43:48;;;;;;;8.07;4.50;;;16.70;99.90;;;;;;5071575;28;20380;-56
2021/07/06 03:46:13;;;;;;;7.50;4.60;;;16.80;99.90;;;;;;5070901;28;20380;-56
2021/07/06 03:48:39;;;;;;;11.20;4.53;;;16.80;99.90;;;;;;5071431;28;20802;-57
2021/07/06 03:51:04;;;;;;;9.32;4.95;;;16.90;99.90;;;;;;5071069;28;20422;-56
2021/07/06 03:53:30;;;;;;;9.60;4.67;;;16.90;99.90;;;;;;5070117;28;20437;-56
2021/07/06 03:55:56;;;;;;;10.27;5.37;;;16.90;99.90;;;;;;5071307;28;20419;-56
2021/07/06 03:58:21;;;;;;;8.82;4.55;;;16.90;99.90;;;;;;5052526;28;20391;-56
2021/07/06 04:00:47;;;;;;;9.70;5.10;;;16.90;99.90;;;;;;5071068;28;20391;-56
2021/07/06 04:03:13;;;;;;;9.90;5.20;;;17.00;99.90;;;;;;5069971;28;20822;-56
2021/07/06 04:05:38;;;;;;;8.95;5.05;;;17.10;99.90;;;;;;5071178;28;20459;-56
2021/07/06 04:08:04;;;;;;;9.30;5.15;;;17.20;99.90;;;;;;5071004;28;20416;-56
2021/07/06 04:10:30;;;;;;;8.70;4.97;;;17.30;99.90;;;;;;5070408;28;20399;-56
2021/07/06 04:12:55;;;;;;;11.77;5.47;;;17.30;99.90;;;;;;5071075;28;20462;-56
2021/07/06 04:15:21;;;;;;;10.80;5.30;;;17.30;99.90;;;;;;5070332;28;20459;-56
2021/07/06 04:17:48;;;;;;;8.30;4.63;;;17.30;99.90;;;;;;5053172;28;20433;-56
2021/07/06 04:20:14;;;;;;;9.50;4.90;;;17.30;99.90;;;;;;5052181;28;20396;-56
2021/07/06 04:22:41;;;;;;;11.48;4.60;;;17.40;99.90;;;;;;5064822;28;20398;-59
2021/07/06 04:25:08;;;;;;;7.20;4.00;;;17.40;99.90;;;;;;5069656;28;20487;-56
2021/07/06 04:27:34;;;;;;;7.70;3.80;;;15.90;99.90;;;;;;5070818;28;20379;-56
2021/07/06 04:29:59;;;;;;;7.78;3.80;;;17.70;99.90;;;;;;5067370;28;20373;-56
2021/07/06 04:32:25;;;;;;;7.50;4.20;;;17.80;99.90;;;;;;5049885;28;21226;-56
2021/07/06 04:34:51;;;;;;;7.43;3.90;;;17.80;99.90;;;;;;5050616;28;20815;-56
2021/07/06 04:37:17;;;;;;;10.10;4.50;;;17.90;99.90;;;;;;5049916;28;20418;-56
2021/07/06 04:39:43;;;;;;;10.20;4.43;;;18.00;99.90;;;;;;5050529;28;20382;-56
2021/07/06 04:42:12;;;;;;;8.73;4.30;;;18.20;99.90;;;;;;5050183;28;20443;-53
2021/07/06 04:44:38;;;;;;;8.00;4.10;;;18.30;99.90;;;;;;5050465;28;20374;-53
2021/07/06 04:47:04;;;;;;;8.15;4.10;;;18.40;99.90;;;;;;5047733;28;20745;-53
2021/07/06 04:49:29;;;;;;;8.53;4.70;;;18.50;99.90;;;;;;5068533;28;20517;-54
2021/07/06 04:51:55;;;;;;;8.50;4.30;;;18.60;99.90;;;;;;5069907;28;20455;-54
2021/07/06 04:54:23;;;;;;;9.30;3.90;;;18.70;99.90;;;;;;5069152;28;20391;-53
2021/07/06 04:56:53;;;;;;;8.77;4.13;;;18.90;99.90;;;;;;5052295;28;20766;-53
2021/07/06 04:59:21;;;;;;;10.18;4.60;;;19.30;99.90;;;;;;5069304;28;20388;-57
2021/07/06 05:01:47;;;;;;;6.63;3.80;;;19.90;99.90;;;;;;5070071;28;20376;-57
2021/07/06 05:04:13;;;;;;;7.00;3.50;;;20.40;99.90;;;;;;5051360;28;20549;-56
2021/07/06 05:06:40;;;;;;;7.60;3.10;;;21.10;99.90;;;;;;5070222;28;20869;-57
2021/07/06 05:09:06;;;;;;;6.60;2.85;;;21.70;99.90;;;;;;5069778;28;20407;-57
2021/07/06 05:11:32;;;;;;;6.50;2.80;;;22.10;99.90;;;;;;5057254;28;20887;-57
2021/07/06 05:13:57;;;;;;;6.10;3.17;;;22.00;99.90;;;;;;5052226;28;20386;-57
2021/07/06 05:16:23;;;;;;;6.00;3.00;;;21.50;99.90;;;;;;5051630;28;20386;-56
2021/07/06 05:18:48;;;;;;;7.90;3.03;;;21.00;99.90;;;;;;5069719;28;20459;-56
2021/07/06 05:21:16;;;;;;;8.50;3.40;;;20.60;99.90;;;;;;5059690;28;20408;-54
2021/07/06 05:23:42;;;;;;;5.70;2.70;;;20.40;99.90;;;;;;5055118;28;20396;-56
2021/07/06 05:26:07;;;;;;;6.85;3.10;;;20.10;99.90;;;;;;5054318;28;20860;-55
2021/07/06 05:28:33;;;;;;;6.47;3.00;;;19.90;99.90;;;;;;5069420;28;20376;-55
2021/07/06 05:30:59;;;;;;;5.88;2.70;;;19.90;99.90;;;;;;5069569;28;20399;-56
2021/07/06 05:33:24;;;;;;;6.70;2.72;;;20.60;99.90;;;;;;5064900;28;20420;-56
2021/07/06 05:35:50;;;;;;;6.87;3.60;;;22.00;99.90;;;;;;5049646;28;20431;-56
2021/07/06 05:38:16;;;;;;;6.87;3.23;;;23.70;99.90;;;;;;5048716;28;20389;-56
2021/07/06 05:40:43;;;;;;;6.07;2.60;;;25.10;99.90;;;;;;5049571;28;20389;-56
2021/07/06 05:43:10;;;;;;;5.68;2.80;;;26.70;99.90;;;;;;5049807;28;20404;-56
2021/07/06 05:45:36;;;;;;;6.95;2.78;;;27.70;99.90;;;;;;5048861;28;20446;-56
2021/07/06 05:48:02;;;;;;;7.27;2.60;;;27.80;99.90;;;;;;5062120;28;20455;-56
2021/07/06 05:50:28;;;;;;;7.53;2.58;;;28.60;99.90;;;;;;5053458;28;20417;-56
2021/07/06 05:52:54;;;;;;;7.87;3.10;;;29.50;99.90;;;;;;5048080;28;20431;-56
2021/07/06 05:55:20;;;;;;;5.80;2.40;;;30.10;99.40;;;;;;5052086;28;20708;-56
2021/07/06 05:57:45;;;;;;;6.20;2.50;;;30.40;97.30;;;;;;5037242;28;20873;-57
2021/07/06 06:00:13;;;;;;;8.02;3.10;;;30.40;96.60;;;;;;5061242;28;20381;-56
2021/07/06 06:02:39;;;;;;;13.23;11.93;;;30.50;96.00;;;;;;5028878;28;20375;-57
2021/07/06 06:05:06;;;;;;;8.90;3.30;;;30.90;95.10;;;;;;5028703;28;20390;-56
2021/07/06 06:07:40;;;;;;;7.47;3.38;;;30.90;94.20;;;;;;5027923;28;20398;-56
2021/07/06 06:10:08;;;;;;;7.00;3.30;;;30.50;94.60;;;;;;5029269;28;20389;-57
2021/07/06 06:12:34;;;;;;;9.13;4.93;;;31.30;93.10;;;;;;5041640;28;20413;-57
2021/07/06 06:14:59;;;;;;;5.70;2.53;;;31.30;92.70;;;;;;5057366;28;20385;-57
2021/07/06 06:17:25;;;;;;;7.90;3.40;;;31.50;92.50;;;;;;5051967;28;20800;-57
2021/07/06 06:19:51;;;;;;;7.90;2.50;;;32.50;91.70;;;;;;5037520;28;20383;-57
2021/07/06 06:22:16;;;;;;;5.00;1.80;;;33.00;87.50;;;;;;5040062;28;20485;-56
2021/07/06 06:24:42;;;;;;;5.33;1.90;;;32.80;85.50;;;;;;5045535;28;20391;-57
2021/07/06 06:27:08;;;;;;;8.07;1.60;;;32.70;84.90;;;;;;5039330;28;20915;-57
2021/07/06 06:29:34;;;;;;;5.03;1.50;;;32.30;85.90;;;;;;5031048;28;20383;-57
2021/07/06 06:32:00;;;;;;;4.70;1.55;;;32.60;83.50;;;;;;5040592;28;20780;-57
2021/07/06 06:34:25;;;;;;;4.40;1.30;;;32.60;81.40;;;;;;5034828;28;20379;-56
2021/07/06 06:36:51;;;;;;;6.20;1.60;;;32.60;83.90;;;;;;5045303;28;20379;-57
2021/07/06 06:39:17;;;;;;;4.93;1.40;;;32.90;80.70;;;;;;5034067;28;20865;-57
2021/07/06 06:41:42;;;;;;;5.47;1.90;;;33.00;80.10;;;;;;5034417;28;20395;-57
2021/07/06 06:44:08;;;;;;;5.60;1.70;;;33.30;78.00;;;;;;5028852;28;20872;-57
2021/07/06 06:46:34;;;;;;;4.75;1.50;;;33.30;77.40;;;;;;5044398;28;20398;-57
2021/07/06 06:49:04;;;;;;;4.60;1.30;;;33.70;74.20;;;;;;5028392;28;20382;-57
2021/07/06 06:51:30;;;;;;;5.03;2.47;;;33.10;76.00;;;;;;5035789;28;20425;-57
2021/07/06 06:53:55;;;;;;;7.03;2.33;;;34.00;75.30;;;;;;5033771;28;20528;-57
2021/07/06 06:56:21;;;;;;;6.30;2.30;;;35.00;72.20;;;;;;5039165;28;20470;-57
2021/07/06 06:58:47;;;;;;;5.75;2.70;;;35.10;70.80;;;;;;5037236;28;20418;-57
2021/07/06 07:01:12;;;;;;;5.15;1.40;;;35.40;70.60;;;;;;5022702;28;20404;-57
2021/07/06 07:03:38;;;;;;;5.00;1.50;;;35.00;68.90;;;;;;5037394;28;20462;-58
2021/07/06 07:06:04;;;;;;;5.33;1.57;;;34.20;72.10;;;;;;5039540;28;20387;-57
2021/07/06 07:08:29;;;;;;;6.10;2.00;;;34.20;71.80;;;;;;5036018;28;20629;-57
2021/07/06 07:10:55;;;;;;;5.37;1.80;;;33.90;73.50;;;;;;5039466;28;20499;-57
2021/07/06 07:13:21;;;;;;;5.40;1.50;;;33.90;74.20;;;;;;5036541;28;20783;-57
2021/07/06 07:15:46;;;;;;;4.97;1.52;;;34.30;73.50;;;;;;5042459;28;20393;-57
2021/07/06 07:18:13;;;;;;;4.60;1.45;;;34.90;73.10;;;;;;5040876;28;20380;-57
2021/07/06 07:20:38;;;;;;;4.65;1.35;;;35.30;70.30;;;;;;5042940;28;20445;-57
2021/07/06 07:23:04;;;;;;;5.10;1.40;;;35.50;70.10;;;;;;5040007;28;20391;-57
2021/07/06 07:25:32;;;;;;;9.88;9.05;;;35.50;67.40;;;;;;5041345;28;20994;-57
2021/07/06 07:27:57;;;;;;;6.70;6.10;;;35.80;66.90;;;;;;5041418;28;20418;-57
2021/07/06 07:30:23;;;;;;;7.50;4.60;;;35.70;66.20;;;;;;5038998;28;20963;-57
2021/07/06 07:32:49;;;;;;;6.40;5.80;;;35.80;66.00;;;;;;5041891;28;20408;-57
2021/07/06 07:35:15;;;;;;;7.80;7.00;;;36.40;63.10;;;;;;5040053;28;20390;-57
2021/07/06 07:37:42;;;;;;;7.10;6.40;;;36.60;61.40;;;;;;5040431;28;20374;-57
2021/07/06 07:40:10;;;;;;;6.60;6.00;;;37.00;62.00;;;;;;5042045;28;20377;-57
2021/07/06 07:42:36;;;;;;;7.45;6.75;;;36.70;61.50;;;;;;5046272;28;21456;-57
2021/07/06 07:45:02;;;;;;;6.80;5.97;;;37.60;57.90;;;;;;5050822;28;20390;-57
2021/07/06 07:47:28;;;;;;;5.68;3.67;;;38.00;57.40;;;;;;5049522;28;20424;-57
2021/07/06 07:49:53;;;;;;;4.10;1.00;;;37.10;56.50;;;;;;5049698;28;20438;-57
2021/07/06 07:52:19;;;;;;;4.38;1.10;;;37.00;59.10;;;;;;5043126;28;20426;-57
2021/07/06 07:54:45;;;;;;;4.90;1.40;;;37.30;58.50;;;;;;5025390;28;20407;-57
2021/07/06 07:57:11;;;;;;;5.07;1.20;;;36.80;57.80;;;;;;5039739;28;20879;-56
2021/07/06 07:59:39;;;;;;;5.57;2.15;;;35.70;59.40;;;;;;5043190;28;20890;-56
2021/07/06 08:02:05;;;;;;;4.40;1.40;;;33.80;63.40;;;;;;5042205;28;20436;-56
2021/07/06 08:04:31;;;;;;;6.80;6.10;;;32.30;66.20;;;;;;5041141;28;20674;-56
2021/07/06 08:06:57;;;;;;;10.57;9.68;;;31.50;70.90;;;;;;5047214;28;20405;-57
2021/07/06 08:09:22;;;;;;;8.52;7.82;;;30.80;71.50;;;;;;5029348;28;20389;-57
2021/07/06 08:11:48;;;;;;;5.20;4.40;;;30.50;74.70;;;;;;5042339;28;20444;-56
2021/07/06 08:14:14;;;;;;;4.28;1.30;;;30.30;77.30;;;;;;5039592;28;20402;-56
2021/07/06 08:16:40;;;;;;;5.25;2.97;;;30.00;82.70;;;;;;5040017;28;20388;-56
2021/07/06 08:19:05;;;;;;;6.05;3.00;;;29.60;82.90;;;;;;5041025;28;20385;-56
2021/07/06 08:21:31;;;;;;;6.40;5.35;;;29.40;85.30;;;;;;5054129;28;21002;-56
2021/07/06 08:24:00;;;;;;;6.20;5.40;;;30.60;86.00;;;;;;5039382;28;20405;-57
2021/07/06 08:26:26;;;;;;;5.95;4.85;;;32.80;77.20;;;;;;5039819;28;20389;-57
2021/07/06 08:28:52;;;;;;;5.53;4.30;;;34.70;71.90;;;;;;5039741;28;20857;-57
2021/07/06 08:31:19;;;;;;;5.90;5.30;;;34.80;68.90;;;;;;5041366;28;20892;-57
2021/07/06 08:33:44;;;;;;;5.80;4.80;;;34.20;67.90;;;;;;5021065;28;20407;-57
2021/07/06 08:36:10;;;;;;;5.87;4.30;;;33.30;70.90;;;;;;5041245;28;20385;-57
2021/07/06 08:38:40;;;;;;;7.28;1.25;;;33.50;71.00;;;;;;5039427;28;20386;-57
2021/07/06 08:41:06;;;;;;;5.18;2.00;;;33.50;72.10;;;;;;5039007;28;20383;-57
2021/07/06 08:43:32;;;;;;;7.15;3.95;;;32.50;75.00;;;;;;5042052;28;20379;-54
2021/07/06 08:46:00;;;;;;;6.00;5.20;;;31.70;76.30;;;;;;5039680;28;20381;-55
2021/07/06 08:48:30;;;;;;;5.70;4.43;;;31.30;79.00;;;;;;5039448;28;20390;-55
2021/07/06 08:50:57;;;;;;;5.47;4.55;;;31.20;78.90;;;;;;5021335;28;20777;-56
2021/07/06 08:53:23;;;;;;;5.80;4.32;;;30.90;82.00;;;;;;5038351;28;20904;-56
2021/07/06 08:55:49;;;;;;;6.70;5.25;;;31.20;82.10;;;;;;5038461;28;20789;-56
2021/07/06 08:58:18;;;;;;;6.50;5.50;;;30.40;81.00;;;;;;5046792;28;20870;-58
2021/07/06 09:00:43;;;;;;;7.15;4.90;;;30.70;81.00;;;;;;5037122;28;20395;-53
2021/07/06 09:03:10;;;;;;;7.13;4.97;;;30.70;78.50;;;;;;5049076;28;20763;-54
2021/07/06 09:05:36;;;;;;;7.95;7.15;;;29.80;82.80;;;;;;5056206;28;20409;-55
2021/07/06 09:08:03;;;;;;;9.38;6.80;;;29.00;86.90;;;;;;5040830;28;20380;-55
2021/07/06 09:10:40;;;;;;;8.95;5.85;;;27.80;92.90;;;;;;5043170;28;20457;-53
2021/07/06 09:13:19;;;;;;;7.95;4.63;;;26.20;99.70;;;;;;5029743;28;20877;-52
2021/07/06 09:15:53;;;;;;;7.40;2.60;;;25.20;99.90;;;;;;5058850;28;20398;-52
2021/07/06 09:18:20;;;;;;;7.60;3.17;;;24.30;99.90;;;;;;5034088;28;20441;-60
2021/07/06 09:21:08;;;;;;;5.40;2.53;;;23.60;99.90;;;;;;5028313;28;20752;-54
2021/07/06 09:23:40;;;;;;;7.97;2.87;;;23.20;99.90;;;;;;5038295;28;20451;-55
2021/07/06 09:26:07;;;;;;;10.52;2.40;;;23.00;99.90;;;;;;5050726;28;20458;-57
2021/07/06 09:28:35;;;;;;;5.80;1.90;;;22.70;99.90;;;;;;5045753;28;20478;-55
2021/07/06 09:31:23;;;;;;;8.05;1.95;;;22.70;99.90;;;;;;5034784;28;20841;-56
2021/07/06 09:33:57;;;;;;;5.30;1.80;;;22.60;99.90;;;;;;5043173;28;20401;-53
2021/07/06 09:36:28;;;;;;;6.20;1.90;;;22.20;99.90;;;;;;5037129;28;20382;-52
2021/07/06 09:39:14;;;;;;;5.20;1.33;;;22.00;99.90;;;;;;5041699;28;20447;-52
2021/07/06 09:41:45;;;;;;;7.03;1.60;;;21.60;99.90;;;;;;5020533;28;20904;-53
2021/07/06 09:44:17;;;;;;;5.22;1.80;;;21.30;99.90;;;;;;5025554;28;20405;-52
2021/07/06 09:46:55;;;;;;;4.00;1.20;;;21.60;99.90;;;;;;5040775;28;20408;-52
2021/07/06 09:49:23;;;;;;;4.90;1.40;;;21.60;99.90;;;;;;5038766;28;20392;-53
2021/07/06 09:51:50;;;;;;;4.43;1.40;;;21.30;99.90;;;;;;5041686;28;20423;-52
2021/07/06 09:54:27;;;;;;;6.05;1.65;;;21.20;99.90;;;;;;5037586;28;20391;-59
2021/07/06 09:57:12;;;;;;;4.00;1.20;;;21.30;99.90;;;;;;5037385;28;20517;-54
2021/07/06 09:59:55;;;;;;;5.00;1.30;;;21.40;99.90;;;;;;5037982;28;20689;-53
2021/07/06 10:02:22;;;;;;;5.10;1.30;;;21.70;99.90;;;;;;5037966;28;20383;-55
2021/07/06 10:04:53;;;;;;;3.90;1.15;;;22.10;99.90;;;;;;5038312;28;20382;-53
2021/07/06 10:07:21;;;;;;;5.07;1.30;;;22.60;99.90;;;;;;5019737;28;20861;-59
2021/07/06 10:09:47;;;;;;;5.50;1.20;;;23.70;99.90;;;;;;5037982;28;20709;-54
2021/07/06 10:12:14;;;;;;;5.10;1.50;;;25.10;99.90;;;;;;5039624;28;20416;-53
2021/07/06 10:14:40;;;;;;;5.50;1.30;;;25.10;99.90;;;;;;5040994;28;20461;-54
2021/07/06 10:17:07;;;;;;;4.10;1.00;;;25.00;99.90;;;;;;5017828;28;20412;-55
2021/07/06 10:19:38;;;;;;;4.75;1.20;;;25.00;99.90;;;;;;5035058;28;20945;-55
2021/07/06 10:22:05;;;;;;;4.70;1.50;;;23.70;99.90;;;;;;5039915;28;20412;-55
2021/07/06 10:24:34;;;;;;;5.00;1.05;;;23.70;99.90;;;;;;5035500;28;20395;-57
2021/07/06 10:27:05;;;;;;;4.55;1.20;;;23.80;99.90;;;;;;5032403;28;20377;-54
2021/07/06 10:29:35;;;;;;;4.90;1.30;;;23.20;99.90;;;;;;5043315;28;20931;-55
2021/07/06 10:32:04;;;;;;;6.68;1.40;;;22.90;99.90;;;;;;5045574;28;20409;-54
2021/07/06 10:34:40;;;;;;;4.00;1.20;;;22.80;99.90;;;;;;5035330;28;20403;-57
2021/07/06 10:37:29;;;;;;;4.20;1.20;;;22.80;99.90;;;;;;5037598;28;20377;-54
2021/07/06 10:40:11;;;;;;;4.80;1.50;;;22.90;99.90;;;;;;5041785;28;20398;-57
2021/07/06 10:42:39;;;;;;;5.60;1.50;;;23.20;99.90;;;;;;5031948;28;20505;-54
2021/07/06 10:45:19;;;;;;;4.20;1.20;;;23.70;99.90;;;;;;5047723;28;20440;-54
2021/07/06 10:47:50;;;;;;;4.22;1.30;;;24.10;99.90;;;;;;5040797;28;20409;-51
2021/07/06 10:50:43;;;;;;;5.40;1.30;;;24.80;99.90;;;;;;5048075;28;20505;-57
2021/07/06 10:53:23;;;;;;;4.10;1.10;;;25.60;99.90;;;;;;5038716;28;20418;-51
2021/07/06 10:56:06;;;;;;;5.33;1.20;;;25.90;99.90;;;;;;5042254;28;20404;-54
2021/07/06 10:58:51;;;;;;;4.38;1.10;;;26.40;99.90;;;;;;5043245;28;20391;-55
2021/07/06 11:01:49;;;;;;;4.75;1.63;;;26.70;99.90;;;;;;5059737;28;20476;-60
2021/07/06 11:04:41;;;;;;;4.05;0.85;;;27.10;99.90;;;;;;4965167;28;20486;-54
2021/07/06 11:07:12;;;;;;;5.10;1.50;;;27.00;99.90;;;;;;5037165;28;20765;-57
2021/07/06 11:09:38;;;;;;;4.70;1.55;;;26.40;99.90;;;;;;5048642;28;20465;-52
2021/07/06 11:12:34;;;;;;;4.80;1.50;;;25.80;99.90;;;;;;5052898;28;20916;-51
2021/07/06 11:15:27;;;;;;;5.40;1.50;;;25.40;99.90;;;;;;5060181;28;20386;-52
2021/07/06 11:18:02;;;;;;;8.52;2.20;;;25.30;99.90;;;;;;5051999;28;20398;-52
2021/07/06 11:20:45;;;;;;;6.22;1.50;;;25.00;99.90;;;;;;5037528;28;20413;-54
2021/07/06 11:23:17;;;;;;;5.22;1.40;;;24.80;99.90;;;;;;5049122;28;20437;-53
2021/07/06 11:25:44;;;;;;;5.35;1.30;;;24.60;99.90;;;;;;5053737;28;20417;-52
2021/07/06 11:28:25;;;;;;;6.35;1.50;;;24.40;99.90;;;;;;5045536;28;20451;-55
2021/07/06 11:30:51;;;;;;;5.03;1.40;;;24.50;99.90;;;;;;5040817;28;20408;-55
2021/07/06 11:33:25;;;;;;;5.40;1.20;;;24.20;99.90;;;;;;5056777;28;20397;-60
2021/07/06 11:36:05;;;;;;;3.90;1.10;;;24.30;99.90;;;;;;5034432;28;20747;-54
2021/07/06 11:38:33;;;;;;;4.60;1.05;;;24.50;99.90;;;;;;5011917;28;20394;-51
2021/07/06 11:41:01;;;;;;;6.70;1.58;;;24.60;99.90;;;;;;5023940;28;20812;-52
2021/07/06 11:43:29;;;;;;;4.10;0.80;;;24.80;99.90;;;;;;5040807;28;20398;-52
2021/07/06 11:46:02;;;;;;;3.85;0.90;;;24.80;99.90;;;;;;5039618;28;20385;-51
2021/07/06 11:48:36;;;;;;;4.03;1.10;;;24.60;99.90;;;;;;5023217;28;20484;-51
2021/07/06 11:51:08;;;;;;;4.20;1.10;;;24.80;99.90;;;;;;5024764;28;20417;-52
2021/07/06 11:53:39;;;;;;;4.80;0.90;;;24.90;99.90;;;;;;5023856;28;20491;-51
2021/07/06 11:56:08;;;;;;;5.28;1.10;;;24.60;99.90;;;;;;5041923;28;20405;-52
2021/07/06 11:58:35;;;;;;;4.70;1.10;;;24.60;99.90;;;;;;5038643;28;20383;-52
2021/07/06 12:01:06;;;;;;;4.80;1.00;;;24.60;99.90;;;;;;5022219;28;20395;-52
2021/07/06 12:03:33;;;;;;;3.85;0.90;;;24.60;99.90;;;;;;5041536;28;20382;-51
2021/07/06 12:06:10;;;;;;;5.22;1.10;;;24.60;99.90;;;;;;5039061;28;20386;-53
2021/07/06 12:08:39;;;;;;;7.50;1.13;;;24.00;99.90;;;;;;5038943;28;20387;-54
2021/07/06 12:11:09;;;;;;;3.90;1.20;;;24.00;99.90;;;;;;5040264;28;20409;-54
2021/07/06 12:13:44;;;;;;;5.00;1.00;;;24.00;99.90;;;;;;5039246;28;20450;-54
2021/07/06 12:16:24;;;;;;;4.22;1.10;;;24.00;99.90;;;;;;5039825;28;20410;-56
2021/07/06 12:18:53;;;;;;;5.50;1.20;;;24.10;99.90;;;;;;5039538;28;20390;-52
2021/07/06 12:21:30;;;;;;;6.90;1.15;;;24.30;99.90;;;;;;5040644;28;20503;-52
2021/07/06 12:23:59;;;;;;;4.40;1.05;;;24.70;99.90;;;;;;5021240;28;20403;-57
2021/07/06 12:26:26;;;;;;;5.13;1.17;;;25.10;99.90;;;;;;5040046;28;20374;-52
2021/07/06 12:28:52;;;;;;;4.10;1.00;;;25.40;99.90;;;;;;5041262;28;20422;-52
2021/07/06 12:31:21;;;;;;;4.32;1.10;;;25.40;99.90;;;;;;5018755;28;20514;-53
2021/07/06 12:33:58;;;;;;;4.20;0.90;;;24.00;99.90;;;;;;5024566;28;20399;-53
2021/07/06 12:36:46;;;;;;;4.50;0.70;;;24.90;99.90;;;;;;5021058;28;20437;-52
2021/07/06 12:39:33;;;;;;;4.30;0.90;;;24.60;99.90;;;;;;5043128;28;20385;-52
2021/07/06 12:42:19;;;;;;;4.80;0.90;;;24.40;99.90;;;;;;5043709;28;20392;-53
2021/07/06 12:44:50;;;;;;;4.80;0.95;;;23.90;99.90;;;;;;5038378;28;20450;-53
2021/07/06 12:47:24;;;;;;;4.60;0.82;;;23.70;99.90;;;;;;5043245;28;21125;-52
2021/07/06 12:50:11;;;;;;;4.90;1.00;;;23.70;99.90;;;;;;5026193;28;20403;-54
2021/07/06 12:52:39;;;;;;;5.80;0.90;;;23.80;99.90;;;;;;5049427;28;20458;-53
2021/07/06 12:55:16;;;;;;;4.20;0.90;;;24.00;99.90;;;;;;5037059;28;20474;-53